Portada
METAR-TAF:

METAR-TAF

Aeroports :

Colmenar Viejo, Espanya

latitud: 40-39N, longitud: 003-44W, altitud: -999 m

Observació

L'informe es va fer fa 1 hora i 1 minuts, a les 17:00 UTC
Vent 16 kt del Est/Nord-Est, variant entre Nord i Est
Temperatura 13°C
Humitat 94%
Pressió 1016 hPa
Visibilitat: 3000 m
Escasses núvols a una alçada de 2000 ft
Cel ennuvolat a una alçada de 6000 ft
pluja, boirina

METAR: LECV 191700Z 06016KT 010V080 3000 -RA BR FEW020 BKN060 13/12 Q1016

Hora: 20:01 (18:01 UTC)

Pronòstic

L'informe es va fer fa 1 hora i 1 minuts, a les 17:00 UTC
Pronòstic vàlid del 19 a les 18 UTC al 20 a les 03 UTC
Vent 16 kt del Est/Nord-Est
Visibilitat 10 km o més
Núvols disperses a una alçada de 2000 ft
Cel ennuvolat a una alçada de 4000 ft
Temporalment
l' 19 a les 18 UTC al 20 a les 03 UTC
Visibilitat: 2000 m
Cel ennuvolat a una alçada de 1200 ft
pluja, boirina

TAF: LECV 191700Z 1918/2003 06016KT 9999 SCT020 BKN040 TEMPO 1918/2003 2000 RA BR BKN012

Observacions i pronòstics meteorològics de més de 4000 aeroports (METAR i TAF).

Les estacions disponibles són els punts grocs i vermells al mapa.

Posi el ratolí al punt desitjat per veure el nom de l'estació.

Feu clic per veure les observacions i els pronòstics meteorològics.

Per canviar el mapa: feu clic els botons verds amb una creu de color negre per apropar; al botó verd amb un guió per allunyar la imatge; o en les fletxes verdes per a mapes adjacents.


METAR-TAF: